Soyo Maru — JGKL — position and weather

sailwx.info

Track history (hours):
 
Tides and Currents Weather Stations Pressure Air Temp Water Temp Dewpoint Dewpoint Depression Visibility Wind Speed Wind Dir Waves Ship Positions

Oceanographic research ship Soyo Maru (Japan)

Detailed information on ship capabilities available from University of Delaware's Ocean Information Center.

Last reported at 2018-Feb-21 02:08 UTC. Time now 2018-Feb-25 06:17 UTC.
Position N 34°30' E 138°00'.

Length 67 m; draft 5 m.

Type: Ship. MMSI: 431673000.

Date/timePositionNaut miles runAvg speedWind from/ knotsBaromVisibWave heightAir tempDewpointWater temp
2018-Feb-21 02:08N 34°30' E 138°00'0 0.6
2018-Feb-21 01:40N 34°30' E 138°01'0 0.6
2018-Feb-21 01:13N 34°30' E 138°00'0 0.2
2018-Feb-21 00:55N 34°30' E 138°00'3 5.4
2018-Feb-21 00:22N 34°30' E 138°04'511.6
2018-Feb-20 23:59N 34°30' E 138°09'811.5
2018-Feb-20 23:20N 34°30' E 138°18'511.7
2018-Feb-20 22:52N 34°31' E 138°25'511.6
2018-Feb-20 22:27N 34°31' E 138°31'18 9.5
2018-Feb-20 20:36N 34°32' E 138°52'4 7.6
2018-Feb-20 20:03N 34°32' E 138°57'1 6.7
2018-Feb-20 19:56N 34°32' E 138°58'5 9.3
2018-Feb-20 19:27N 34°36' E 139°01'510.5
2018-Feb-20 19:00N 34°40' E 139°03'910.6
2018-Feb-20 18:09N 34°49' E 139°06'21 3.1
2018-Feb-20 11:18N 35°01' E 139°27'411.2
2018-Feb-20 10:55N 35°04' E 139°32'1 2.8
2018-Feb-20 10:28N 35°05' E 139°33'0 0.4
2018-Feb-20 09:59N 35°05' E 139°32'0 0.2
2018-Feb-20 09:29N 35°05' E 139°32'0 0.3
2018-Feb-20 08:58N 35°05' E 139°32'0 0.4
2018-Feb-20 08:23N 35°05' E 139°33'0 0.4
2018-Feb-20 07:50N 35°05' E 139°33'0 0.5
2018-Feb-20 07:30N 35°05' E 139°32'5 9.8
2018-Feb-20 06:59N 35°06' E 139°38'612.0
2018-Feb-20 06:30N 35°09' E 139°44'612.2
2018-Feb-20 06:00N 35°15' E 139°46'611.9
2018-Feb-20 05:30N 35°20' E 139°42'4 7.4
2018-Feb-20 05:00N 35°23' E 139°39'0 0.2
2018-Feb-20 04:29N 35°23' E 139°39'0 0.0
2018-Feb-20 03:59N 35°23' E 139°39'0 0.0
2018-Feb-20 03:29N 35°23' E 139°39'0 0.0
2018-Feb-20 02:59N 35°23' E 139°39'0 0.0
2018-Feb-20 02:29N 35°23' E 139°39'0 0.0
2018-Feb-20 01:59N 35°23' E 139°39'0 0.0
2018-Feb-20 01:29N 35°23' E 139°39'0 0.0
2018-Feb-20 00:59N 35°23' E 139°39'0 0.0
2018-Feb-20 00:29N 35°23' E 139°39'0 0.0
2018-Feb-19 23:59N 35°23' E 139°39'0 0.0
2018-Feb-19 23:29N 35°23' E 139°39'0 0.0
2018-Feb-19 22:59N 35°23' E 139°39'0 0.0
2018-Feb-19 22:26N 35°23' E 139°39'0 0.0
2018-Feb-19 21:59N 35°23' E 139°39'0 0.0
2018-Feb-19 21:29N 35°23' E 139°39'0 0.0
2018-Feb-19 20:59N 35°23' E 139°39'0 0.0
2018-Feb-19 20:29N 35°23' E 139°39'0 0.0
2018-Feb-19 19:59N 35°23' E 139°39'0 0.0
2018-Feb-19 19:29N 35°23' E 139°39'0 0.0
2018-Feb-19 18:59N 35°23' E 139°39'0 0.0
2018-Feb-19 18:29N 35°23' E 139°39'0 0.0
2018-Feb-19 17:59N 35°23' E 139°39'0 0.0
2018-Feb-19 17:29N 35°23' E 139°39'0 0.0
2018-Feb-19 16:59N 35°23' E 139°39'0 0.0
2018-Feb-19 16:29N 35°23' E 139°39'0 0.0
2018-Feb-19 15:59N 35°23' E 139°39'0 0.0
2018-Feb-19 15:29N 35°23' E 139°39'0 0.0
2018-Feb-19 14:59N 35°23' E 139°39'0 0.0
2018-Feb-19 14:29N 35°23' E 139°39'0 0.0
2018-Feb-19 13:59N 35°23' E 139°39'0 0.0
2018-Feb-19 13:29N 35°23' E 139°39'0 0.0
2018-Feb-19 12:59N 35°23' E 139°39'0 0.0
2018-Feb-19 12:29N 35°23' E 139°39'0 0.0
2018-Feb-19 11:59N 35°23' E 139°39'0 0.0
2018-Feb-19 11:29N 35°23' E 139°39'0 0.0
2018-Feb-19 10:59N 35°23' E 139°39'0 0.0
2018-Feb-19 10:29N 35°23' E 139°39'0 0.0
2018-Feb-19 09:59N 35°23' E 139°39'0 0.0
2018-Feb-19 09:29N 35°23' E 139°39'0 0.0
2018-Feb-19 08:59N 35°23' E 139°39'0 0.0
2018-Feb-19 08:23N 35°23' E 139°39'0 0.0
2018-Feb-19 07:59N 35°23' E 139°39'0 0.0
2018-Feb-19 07:29N 35°23' E 139°39'0 0.0
2018-Feb-19 06:59N 35°23' E 139°39'0 0.0
2018-Feb-19 06:29N 35°23' E 139°39'0 0.0
2018-Feb-19 05:59N 35°23' E 139°39'0 0.0
2018-Feb-19 05:29N 35°23' E 139°39'0 0.0
2018-Feb-19 04:59N 35°23' E 139°39'0 0.0
2018-Feb-19 04:29N 35°23' E 139°39'0 0.0
2018-Feb-19 03:59N 35°23' E 139°39'0 0.0
2018-Feb-19 03:29N 35°23' E 139°39'0 0.0
2018-Feb-19 02:58N 35°23' E 139°39'0 0.0
2018-Feb-19 02:28N 35°23' E 139°39'0 0.0
2018-Feb-19 01:58N 35°23' E 139°39'0 0.0
2018-Feb-19 01:28N 35°23' E 139°39'0 0.0
2018-Feb-19 00:58N 35°23' E 139°39'0 0.0
2018-Feb-19 00:28N 35°23' E 139°39'0 0.0
2018-Feb-18 23:58N 35°23' E 139°39'0 0.0
2018-Feb-18 23:28N 35°23' E 139°39'0 0.0
2018-Feb-18 22:58N 35°23' E 139°39'0 0.0
2018-Feb-18 22:28N 35°23' E 139°39'0 0.0
2018-Feb-18 21:58N 35°23' E 139°39'0 0.0
2018-Feb-18 21:28N 35°23' E 139°39'0 0.0
2018-Feb-18 20:58N 35°23' E 139°39'0 0.0
2018-Feb-18 20:28N 35°23' E 139°39'0 0.0
2018-Feb-18 19:58N 35°23' E 139°39'0 0.0
2018-Feb-18 19:28N 35°23' E 139°39'0 0.0
2018-Feb-18 18:58N 35°23' E 139°39'0 0.0
2018-Feb-18 18:28N 35°23' E 139°39'0 0.0
2018-Feb-18 17:58N 35°23' E 139°39'0 0.0
2018-Feb-18 17:28N 35°23' E 139°39'0 0.0
2018-Feb-18 16:58N 35°23' E 139°39'0 0.0
2018-Feb-18 16:28N 35°23' E 139°39'0 0.0
2018-Feb-18 15:58N 35°23' E 139°39'0 0.0
2018-Feb-18 15:28N 35°23' E 139°39'0 0.0
2018-Feb-18 14:55N 35°23' E 139°39'0 0.0
2018-Feb-18 14:28N 35°23' E 139°39'0 0.0
2018-Feb-18 13:58N 35°23' E 139°39'0 0.0
2018-Feb-18 13:28N 35°23' E 139°39'0 0.0
2018-Feb-18 12:58N 35°23' E 139°39'0 0.0
2018-Feb-18 12:28N 35°23' E 139°39'0 0.0
2018-Feb-18 11:58N 35°23' E 139°39'0 0.0
2018-Feb-18 11:28N 35°23' E 139°39'0 0.0
2018-Feb-18 10:58N 35°23' E 139°39'0 0.0
2018-Feb-18 10:28N 35°23' E 139°39'0 0.0
2018-Feb-18 09:58N 35°23' E 139°39'0 0.0
2018-Feb-18 09:28N 35°23' E 139°39'0 0.0
2018-Feb-18 08:58N 35°23' E 139°39'0 0.0
2018-Feb-18 08:28N 35°23' E 139°39'0 0.0
2018-Feb-18 07:58N 35°23' E 139°39'0 0.0
2018-Feb-18 07:28N 35°23' E 139°39'0 0.0
2018-Feb-18 06:58N 35°23' E 139°39'0 0.0
2018-Feb-18 06:28N 35°23' E 139°39'0 0.0
2018-Feb-18 05:58N 35°23' E 139°39'0 0.0
2018-Feb-18 05:28N 35°23' E 139°39'0 0.0
2018-Feb-18 04:58N 35°23' E 139°39'0 0.0
2018-Feb-18 04:28N 35°23' E 139°39'0 0.0
2018-Feb-18 03:58N 35°23' E 139°39'0 0.0
2018-Feb-18 03:28N 35°23' E 139°39'0 0.0
2018-Feb-18 02:58N 35°23' E 139°39'0 0.0
2018-Feb-18 02:25N 35°23' E 139°39'0 0.0
2018-Feb-18 01:58N 35°23' E 139°39'0 0.0
2018-Feb-18 01:28N 35°23' E 139°39'0 0.0
2018-Feb-18 00:58N 35°23' E 139°39'0 0.0
2018-Feb-18 00:28N 35°23' E 139°39'0 0.0
2018-Feb-17 23:58N 35°23' E 139°39'0 0.0
2018-Feb-17 23:28N 35°23' E 139°39'0 0.0
2018-Feb-17 22:58N 35°23' E 139°39'0 0.0
2018-Feb-17 22:28N 35°23' E 139°39'0 0.0
2018-Feb-17 21:58N 35°23' E 139°39'0 0.0
2018-Feb-17 21:28N 35°23' E 139°39'0 0.0
2018-Feb-17 20:58N 35°23' E 139°39'0 0.0
2018-Feb-17 20:28N 35°23' E 139°39'0 0.0
2018-Feb-17 19:58N 35°23' E 139°39'0 0.0
2018-Feb-17 19:28N 35°23' E 139°39'0 0.0
2018-Feb-17 18:58N 35°23' E 139°39'0 0.0
2018-Feb-17 18:28N 35°23' E 139°39'0 0.0
2018-Feb-17 17:58N 35°23' E 139°39'0 0.0
2018-Feb-17 17:31N 35°23' E 139°39'0 0.0
2018-Feb-17 17:01N 35°23' E 139°39'0 0.0
2018-Feb-17 16:30N 35°23' E 139°39'0 0.0
2018-Feb-17 16:00N 35°23' E 139°39'0 0.0
2018-Feb-17 15:31N 35°23' E 139°39'0 0.0
2018-Feb-17 15:01N 35°23' E 139°39'0 0.0
2018-Feb-17 14:30N 35°23' E 139°39'0 0.0
2018-Feb-17 14:00N 35°23' E 139°39'0 0.0
2018-Feb-17 13:30N 35°23' E 139°39'0 0.0
2018-Feb-17 13:00N 35°23' E 139°39'0 0.0
2018-Feb-17 12:30N 35°23' E 139°39'0 0.0
2018-Feb-17 12:00N 35°23' E 139°39'0 0.0
2018-Feb-17 11:30N 35°23' E 139°39'0 0.0
2018-Feb-17 11:00N 35°23' E 139°39'0 0.0
2018-Feb-17 10:30N 35°23' E 139°39'0 0.0
2018-Feb-17 10:00N 35°23' E 139°39'0 0.0
2018-Feb-17 09:30N 35°23' E 139°39'0 0.0
2018-Feb-17 09:00N 35°23' E 139°39'0 0.0
2018-Feb-17 08:30N 35°23' E 139°39'0 0.0
2018-Feb-17 07:57N 35°23' E 139°39'0 0.0
2018-Feb-17 07:30N 35°23' E 139°39'0 0.0
2018-Feb-17 07:00N 35°23' E 139°39'0 0.0
2018-Feb-17 06:30N 35°23' E 139°39'0 0.0
2018-Feb-17 06:00N 35°23' E 139°39'0 0.0
2018-Feb-17 05:30N 35°23' E 139°39'0 0.0
2018-Feb-17 05:00N 35°23' E 139°39'0 0.0
2018-Feb-17 04:27N 35°23' E 139°39'0 0.0
2018-Feb-17 04:00N 35°23' E 139°39'0 0.0
2018-Feb-17 03:30N 35°23' E 139°39'0 0.0
2018-Feb-17 03:00N 35°23' E 139°39'0 0.0
2018-Feb-17 02:30N 35°23' E 139°39'0 0.0
2018-Feb-17 02:00N 35°23' E 139°39'0 0.0
2018-Feb-17 01:30N 35°23' E 139°39'0 0.0
2018-Feb-17 01:00N 35°23' E 139°39'0 0.0
2018-Feb-17 00:30N 35°23' E 139°39'0 0.0
2018-Feb-17 00:00N 35°23' E 139°39'0 0.0
2018-Feb-16 23:30N 35°23' E 139°39'0 0.0
2018-Feb-16 23:00N 35°23' E 139°39'0 0.0
2018-Feb-16 22:30N 35°23' E 139°39'0 0.0
2018-Feb-16 22:00N 35°23' E 139°39'0 0.0
2018-Feb-16 21:30N 35°23' E 139°39'0 0.0
2018-Feb-16 21:00N 35°23' E 139°39'0 0.0
2018-Feb-16 20:30N 35°23' E 139°39'0 0.0
2018-Feb-16 20:00N 35°23' E 139°39'0 0.0
2018-Feb-16 19:30N 35°23' E 139°39'0 0.0
2018-Feb-16 19:00N 35°23' E 139°39'0 0.0
2018-Feb-16 18:30N 35°23' E 139°39'0 0.0
2018-Feb-16 18:00N 35°23' E 139°39'0 0.0
2018-Feb-16 17:30N 35°23' E 139°39'0 0.0
2018-Feb-16 17:00N 35°23' E 139°39'0 0.0
2018-Feb-16 16:30N 35°23' E 139°39'0 0.0
2018-Feb-16 16:00N 35°23' E 139°39'0 0.0
2018-Feb-16 15:30N 35°23' E 139°39'0 0.0
2018-Feb-16 15:00N 35°23' E 139°39'0 0.0
2018-Feb-16 14:30N 35°23' E 139°39'0 0.0
2018-Feb-16 14:00N 35°23' E 139°39'0 0.0
2018-Feb-16 13:30N 35°23' E 139°39'0 0.0
2018-Feb-16 13:00N 35°23' E 139°39'0 0.0
2018-Feb-16 12:30N 35°23' E 139°39'0 0.0
2018-Feb-16 12:00N 35°23' E 139°39'0 0.0
2018-Feb-16 11:30N 35°23' E 139°39'0 0.0
2018-Feb-16 11:00N 35°23' E 139°39'0 0.0
2018-Feb-16 10:30N 35°23' E 139°39'0 0.0
2018-Feb-16 10:00N 35°23' E 139°39'0 0.0
2018-Feb-16 09:30N 35°23' E 139°39'0 0.0
2018-Feb-16 09:00N 35°23' E 139°39'0 0.0
2018-Feb-16 08:30N 35°23' E 139°39'0 0.0
2018-Feb-16 08:00N 35°23' E 139°39'0 0.0
2018-Feb-16 07:30N 35°23' E 139°39'0 0.0
2018-Feb-16 07:00N 35°23' E 139°39'0 0.0
2018-Feb-16 06:30N 35°23' E 139°39'0 0.0
2018-Feb-16 05:59N 35°23' E 139°39'0 0.0
2018-Feb-16 05:29N 35°23' E 139°39'0 0.0
2018-Feb-16 04:59N 35°23' E 139°39'0 0.0
2018-Feb-16 04:30N 35°23' E 139°39'0 0.0
2018-Feb-16 03:59N 35°23' E 139°39'0 0.0
2018-Feb-16 03:29N 35°23' E 139°39'0 0.0
2018-Feb-16 02:59N 35°23' E 139°39'0 0.0
2018-Feb-16 02:29N 35°23' E 139°39'0 0.0
2018-Feb-16 01:59N 35°23' E 139°39'0 0.0
2018-Feb-16 01:29N 35°23' E 139°39'0 0.0
2018-Feb-16 00:59N 35°23' E 139°39'0 0.0
2018-Feb-16 00:29N 35°23' E 139°39'0 0.0
2018-Feb-15 23:59N 35°23' E 139°39'0 0.0
2018-Feb-15 23:29N 35°23' E 139°39'0 0.0
2018-Feb-15 22:59N 35°23' E 139°39'0 0.0
2018-Feb-15 22:29N 35°23' E 139°39'0 0.0
2018-Feb-15 21:59N 35°23' E 139°39'0 0.0
2018-Feb-15 21:29N 35°23' E 139°39'0 0.0
2018-Feb-15 20:59N 35°23' E 139°39'0 0.0
2018-Feb-15 20:29N 35°23' E 139°39'0 0.0
2018-Feb-15 19:59N 35°23' E 139°39'0 0.0
2018-Feb-15 19:29N 35°23' E 139°39'0 0.0
2018-Feb-15 18:59N 35°23' E 139°39'0 0.0
2018-Feb-15 18:29N 35°23' E 139°39'0 0.0
2018-Feb-15 17:59N 35°23' E 139°39'0 0.0
2018-Feb-15 17:29N 35°23' E 139°39'0 0.0
2018-Feb-15 16:59N 35°23' E 139°39'0 0.0
2018-Feb-15 16:29N 35°23' E 139°39'0 0.0
2018-Feb-15 15:59N 35°23' E 139°39'0 0.0
2018-Feb-15 15:29N 35°23' E 139°39'0 0.0
2018-Feb-15 14:56N 35°23' E 139°39'0 0.0
2018-Feb-15 14:29N 35°23' E 139°39'0 0.0
2018-Feb-15 13:59N 35°23' E 139°39'0 0.0
2018-Feb-15 13:29N 35°23' E 139°39'0 0.0
2018-Feb-15 12:59N 35°23' E 139°39'0 0.0
2018-Feb-15 12:29N 35°23' E 139°39'0 0.0
2018-Feb-15 11:59N 35°23' E 139°39'0 0.0
2018-Feb-15 11:29N 35°23' E 139°39'0 0.0
2018-Feb-15 10:59N 35°23' E 139°39'0 0.0
2018-Feb-15 10:29N 35°23' E 139°39'0 0.0
2018-Feb-15 09:59N 35°23' E 139°39'0 0.0
2018-Feb-15 09:29N 35°23' E 139°39'0 0.0
2018-Feb-15 08:59N 35°23' E 139°39'0 0.0
2018-Feb-15 08:29N 35°23' E 139°39'0 0.0
2018-Feb-15 07:59N 35°23' E 139°39'0 0.0
2018-Feb-15 07:29N 35°23' E 139°39'0 0.0
2018-Feb-15 06:59N 35°23' E 139°39'0 0.0
2018-Feb-15 06:23N 35°23' E 139°39'0 0.0
2018-Feb-15 05:59N 35°23' E 139°39'0 0.0
2018-Feb-15 05:29N 35°23' E 139°39'0 0.0
2018-Feb-15 04:59N 35°23' E 139°39'0 0.0
2018-Feb-15 04:29N 35°23' E 139°39'0 0.0
2018-Feb-15 03:59N 35°23' E 139°39'0 0.0
2018-Feb-15 03:29N 35°23' E 139°39'0 0.0
2018-Feb-15 02:59N 35°23' E 139°39'0 0.0
2018-Feb-15 02:29N 35°23' E 139°39'0 0.0
2018-Feb-15 01:59N 35°23' E 139°39'0 0.0
2018-Feb-15 01:29N 35°23' E 139°39'0 0.0
2018-Feb-15 00:59N 35°23' E 139°39'0 0.0
2018-Feb-15 00:29N 35°23' E 139°39'0 0.0
2018-Feb-14 23:56N 35°23' E 139°39'0 0.0
2018-Feb-14 23:29N 35°23' E 139°39'0 0.0
2018-Feb-14 22:59N 35°23' E 139°39'0 0.0
2018-Feb-14 22:29N 35°23' E 139°39'0 0.0
2018-Feb-14 21:59N 35°23' E 139°39'0 0.0
2018-Feb-14 21:29N 35°23' E 139°39'0 0.0
2018-Feb-14 20:59N 35°23' E 139°39'0 0.0
2018-Feb-14 20:29N 35°23' E 139°39'0 0.0
2018-Feb-14 19:59N 35°23' E 139°39'0 0.0
2018-Feb-14 19:29N 35°23' E 139°39'0 0.0
2018-Feb-14 18:58N 35°23' E 139°39'0 0.0
2018-Feb-14 18:29N 35°23' E 139°39'0 0.0
2018-Feb-14 17:59N 35°23' E 139°39'0 0.0
2018-Feb-14 17:29N 35°23' E 139°39'0 0.0
2018-Feb-14 16:58N 35°23' E 139°39'0 0.0
2018-Feb-14 16:28N 35°23' E 139°39'0 0.0
2018-Feb-14 15:58N 35°23' E 139°39'0 0.0
2018-Feb-14 15:28N 35°23' E 139°39'0 0.0
2018-Feb-14 14:58N 35°23' E 139°39'0 0.0
2018-Feb-14 14:28N 35°23' E 139°39'0 0.0
2018-Feb-14 13:58N 35°23' E 139°39'0 0.0
2018-Feb-14 13:28N 35°23' E 139°39'0 0.0
2018-Feb-14 12:58N 35°23' E 139°39'0 0.0
2018-Feb-14 12:28N 35°23' E 139°39'0 0.0
2018-Feb-14 11:55N 35°23' E 139°39'0 0.0
2018-Feb-14 11:28N 35°23' E 139°39'0 0.0
2018-Feb-14 10:55N 35°23' E 139°39'0 0.0
2018-Feb-14 10:28N 35°23' E 139°39'0 0.0
2018-Feb-14 09:58N 35°23' E 139°39'0 0.0
2018-Feb-14 09:28N 35°23' E 139°39'0 0.0
2018-Feb-14 08:58N 35°23' E 139°39'0 0.0
2018-Feb-14 08:28N 35°23' E 139°39'0 0.0
2018-Feb-14 07:58N 35°23' E 139°39'0 0.0
2018-Feb-14 07:25N 35°23' E 139°39'0 0.0
2018-Feb-14 06:58N 35°23' E 139°39'0 0.0
2018-Feb-14 06:28N 35°23' E 139°39'0 0.0
2018-Feb-14 05:58N 35°23' E 139°39'0 0.0
2018-Feb-14 05:28N 35°23' E 139°39'0 0.0
2018-Feb-14 04:58N 35°23' E 139°39'0 0.0
2018-Feb-14 04:28N 35°23' E 139°39'0 0.0
2018-Feb-14 03:58N 35°23' E 139°39'0 0.0
2018-Feb-14 03:28N 35°23' E 139°39'0 0.0
2018-Feb-14 02:58N 35°23' E 139°39'0 0.0
2018-Feb-14 02:28N 35°23' E 139°39'0 0.0
2018-Feb-14 01:58N 35°23' E 139°39'0 0.0
2018-Feb-14 01:28N 35°23' E 139°39'0 0.0
2018-Feb-14 00:58N 35°23' E 139°39'0 0.0
2018-Feb-14 00:28N 35°23' E 139°39'0 0.0
2018-Feb-13 23:58N 35°23' E 139°39'0 0.0
2018-Feb-13 23:28N 35°23' E 139°39'0 0.0
2018-Feb-13 22:58N 35°23' E 139°39'0 0.0
2018-Feb-13 22:28N 35°23' E 139°39'0 0.0
2018-Feb-13 21:58N 35°23' E 139°39'0 0.0
2018-Feb-13 21:28N 35°23' E 139°39'0 0.0
2018-Feb-13 20:58N 35°23' E 139°39'0 0.0
2018-Feb-13 20:28N 35°23' E 139°39'0 0.0
2018-Feb-13 19:58N 35°23' E 139°39'0 0.0
2018-Feb-13 19:28N 35°23' E 139°39'0 0.0
2018-Feb-13 18:58N 35°23' E 139°39'0 0.0
2018-Feb-13 18:28N 35°23' E 139°39'0 0.0
2018-Feb-13 17:58N 35°23' E 139°39'0 0.0
2018-Feb-13 17:28N 35°23' E 139°39'0 0.0
2018-Feb-13 16:58N 35°23' E 139°39'0 0.0
2018-Feb-13 16:28N 35°23' E 139°39'0 0.0
2018-Feb-13 15:58N 35°23' E 139°39'0 0.0
2018-Feb-13 15:28N 35°23' E 139°39'0 0.0
2018-Feb-13 14:58N 35°23' E 139°39'0 0.0
2018-Feb-13 14:28N 35°23' E 139°39'0 0.0
2018-Feb-13 13:58N 35°23' E 139°39'0 0.0
2018-Feb-13 13:28N 35°23' E 139°39'0 0.0
2018-Feb-13 12:58N 35°23' E 139°39'0 0.0
2018-Feb-13 12:28N 35°23' E 139°39'0 0.0
2018-Feb-13 11:58N 35°23' E 139°39'0 0.0
2018-Feb-13 11:28N 35°23' E 139°39'0 0.0
2018-Feb-13 10:58N 35°23' E 139°39'0 0.0
2018-Feb-13 10:28N 35°23' E 139°39'0 0.0
2018-Feb-13 09:58N 35°23' E 139°39'0 0.0
2018-Feb-13 09:28N 35°23' E 139°39'0 0.0
2018-Feb-13 09:01N 35°23' E 139°39'0 0.0
2018-Feb-13 08:30N 35°23' E 139°39'0 0.0
2018-Feb-13 08:00N 35°23' E 139°39'0 0.0
2018-Feb-13 07:30N 35°23' E 139°39'0 0.0
2018-Feb-13 07:00N 35°23' E 139°39'0 0.0
2018-Feb-13 06:30N 35°23' E 139°39'0 0.0
2018-Feb-13 06:00N 35°23' E 139°39'0 0.0
2018-Feb-13 05:30N 35°23' E 139°39'0 0.0
2018-Feb-13 05:00N 35°23' E 139°39'0 0.0
2018-Feb-13 04:30N 35°23' E 139°39'0 0.0
2018-Feb-13 04:00N 35°23' E 139°39'0 0.0
2018-Feb-13 03:30N 35°23' E 139°39'0 0.0
2018-Feb-13 03:00N 35°23' E 139°39'0 0.0
2018-Feb-13 02:30N 35°23' E 139°39'0 0.0
2018-Feb-13 02:00N 35°23' E 139°39'0 0.0
2018-Feb-13 01:30N 35°23' E 139°39'0 0.0
2018-Feb-13 01:00N 35°23' E 139°39'0 0.0
2018-Feb-13 00:30N 35°23' E 139°39'0 0.0
2018-Feb-13 00:00N 35°23' E 139°39'0 0.0
2018-Feb-12 23:30N 35°23' E 139°39'0 0.0
2018-Feb-12 23:00N 35°23' E 139°39'0 0.0
2018-Feb-12 22:30N 35°23' E 139°39'0 0.0
2018-Feb-12 22:00N 35°23' E 139°39'0 0.0
2018-Feb-12 21:30N 35°23' E 139°39'0 0.0
2018-Feb-12 21:00N 35°23' E 139°39'0 0.0
2018-Feb-12 20:30N 35°23' E 139°39'0 0.0
2018-Feb-12 20:00N 35°23' E 139°39'0 0.0
2018-Feb-12 19:30N 35°23' E 139°39'0 0.0
2018-Feb-12 19:00N 35°23' E 139°39'0 0.0
2018-Feb-12 18:30N 35°23' E 139°39'0 0.0
2018-Feb-12 18:00N 35°23' E 139°39'0 0.0
2018-Feb-12 17:30N 35°23' E 139°39'0 0.0
2018-Feb-12 17:00N 35°23' E 139°39'0 0.0
2018-Feb-12 16:30N 35°23' E 139°39'0 0.0
2018-Feb-12 16:00N 35°23' E 139°39'0 0.0
2018-Feb-12 15:30N 35°23' E 139°39'0 0.0
2018-Feb-12 15:00N 35°23' E 139°39'0 0.0
2018-Feb-12 14:30N 35°23' E 139°39'0 0.0
2018-Feb-12 14:00N 35°23' E 139°39'0 0.0
2018-Feb-12 13:30N 35°23' E 139°39'0 0.0
2018-Feb-12 13:00N 35°23' E 139°39'0 0.0
2018-Feb-12 12:30N 35°23' E 139°39'0 0.0
2018-Feb-12 12:00N 35°23' E 139°39'0 0.0
2018-Feb-12 11:30N 35°23' E 139°39'0 0.0
2018-Feb-12 11:00N 35°23' E 139°39'0 0.0
2018-Feb-12 10:30N 35°23' E 139°39'0 0.0
2018-Feb-12 10:00N 35°23' E 139°39'0 0.0
2018-Feb-12 09:30N 35°23' E 139°39'0 0.0
2018-Feb-12 09:00N 35°23' E 139°39'0 0.0
2018-Feb-12 08:30N 35°23' E 139°39'0 0.0
2018-Feb-12 08:00N 35°23' E 139°39'0 0.0
2018-Feb-12 07:30N 35°23' E 139°39'0 0.0
2018-Feb-12 07:00N 35°23' E 139°39'0 0.0
2018-Feb-12 06:30N 35°23' E 139°39'0 0.0
2018-Feb-12 06:00N 35°23' E 139°39'0 0.0
2018-Feb-12 05:30N 35°23' E 139°39'0 0.0
2018-Feb-12 05:00N 35°23' E 139°39'0 0.0
2018-Feb-12 04:30N 35°23' E 139°39'0 0.0
2018-Feb-12 04:00N 35°23' E 139°39'0 0.0
2018-Feb-12 03:30N 35°23' E 139°39'0 0.0
2018-Feb-12 03:00N 35°23' E 139°39'0 0.0
2018-Feb-12 02:27N 35°23' E 139°39'0 0.0
2018-Feb-12 02:00N 35°23' E 139°39'0 0.0
2018-Feb-12 01:30N 35°23' E 139°39'0 0.0
2018-Feb-12 01:00N 35°23' E 139°39'0 0.0
2018-Feb-12 00:30N 35°23' E 139°39'0 0.0
2018-Feb-12 00:00N 35°23' E 139°39'0 0.0
2018-Feb-11 23:30N 35°23' E 139°39'0 0.0
2018-Feb-11 23:00N 35°23' E 139°39'0 0.0
2018-Feb-11 22:30N 35°23' E 139°39'0 0.0
2018-Feb-11 22:00N 35°23' E 139°39'0 0.0
2018-Feb-11 21:29N 35°23' E 139°39'0 0.0
2018-Feb-11 20:59N 35°23' E 139°39'0 0.0
2018-Feb-11 20:30N 35°23' E 139°39'0 0.0
2018-Feb-11 19:59N 35°23' E 139°39'0 0.0
2018-Feb-11 19:29N 35°23' E 139°39'0 0.0
2018-Feb-11 18:59N 35°23' E 139°39'0 0.0
2018-Feb-11 18:29N 35°23' E 139°39'0 0.0
2018-Feb-11 17:59N 35°23' E 139°39'0 0.0
2018-Feb-11 17:29N 35°23' E 139°39'0 0.0
2018-Feb-11 16:59N 35°23' E 139°39'0 0.0
2018-Feb-11 16:29N 35°23' E 139°39'0 0.0
2018-Feb-11 15:59N 35°23' E 139°39'0 0.0
2018-Feb-11 15:29N 35°23' E 139°39'0 0.0
2018-Feb-11 14:59N 35°23' E 139°39'0 0.0
2018-Feb-11 14:29N 35°23' E 139°39'0 0.0
2018-Feb-11 13:59N 35°23' E 139°39'0 0.0
2018-Feb-11 13:29N 35°23' E 139°39'0 0.0
2018-Feb-11 12:59N 35°23' E 139°39'0 0.0
2018-Feb-11 12:29N 35°23' E 139°39'0 0.0
2018-Feb-11 11:59N 35°23' E 139°39'0 0.0
2018-Feb-11 11:29N 35°23' E 139°39'0 0.0
2018-Feb-11 10:59N 35°23' E 139°39'0 0.0
2018-Feb-11 10:29N 35°23' E 139°39'0 0.0
2018-Feb-11 09:59N 35°23' E 139°39'0 0.0
2018-Feb-11 09:29N 35°23' E 139°39'0 0.0
2018-Feb-11 08:59N 35°23' E 139°39'0 0.0
2018-Feb-11 08:29N 35°23' E 139°39'0 0.0
2018-Feb-11 07:59N 35°23' E 139°39'0 0.0
2018-Feb-11 07:29N 35°23' E 139°39'0 0.0
2018-Feb-11 06:59N 35°23' E 139°39'0 0.0
2018-Feb-11 06:29N 35°23' E 139°39'0 0.0
2018-Feb-11 05:59N 35°23' E 139°39'0 0.0
2018-Feb-11 05:29N 35°23' E 139°39'0 0.0
2018-Feb-11 04:59N 35°23' E 139°39'0 0.0
2018-Feb-11 04:29N 35°23' E 139°39'0 0.0
2018-Feb-11 03:59N 35°23' E 139°39'0 0.0
2018-Feb-11 03:29N 35°23' E 139°39'0 0.0
2018-Feb-11 02:59N 35°23' E 139°39'0 0.0
2018-Feb-11 02:29N 35°23' E 139°39'  
Track history (hours):
 
Tides and Currents Weather Stations Pressure Air Temp Water Temp Dewpoint Dewpoint Depression Visibility Wind Speed Wind Dir Waves Ship Positions

Oceanographic research ship Soyo Maru (Japan)

Detailed information on ship capabilities available from University of Delaware's Ocean Information Center.

Last reported at 2018-Feb-21 02:08 UTC. Time now 2018-Feb-25 06:17 UTC.
Position N 34°30' E 138°00'.

Length 67 m; draft 5 m.

Type: Ship. MMSI: 431673000.

Date/timePositionNaut miles runAvg speedWind from/ knotsBaromVisibWave heightAir tempDewpointWater temp
2018-Feb-21 02:08N 34°30' E 138°00'0 0.6
2018-Feb-21 01:40N 34°30' E 138°01'0 0.6
2018-Feb-21 01:13N 34°30' E 138°00'0 0.2
2018-Feb-21 00:55N 34°30' E 138°00'3 5.4
2018-Feb-21 00:22N 34°30' E 138°04'511.6
2018-Feb-20 23:59N 34°30' E 138°09'811.5
2018-Feb-20 23:20N 34°30' E 138°18'511.7
2018-Feb-20 22:52N 34°31' E 138°25'511.6
2018-Feb-20 22:27N 34°31' E 138°31'18 9.5
2018-Feb-20 20:36N 34°32' E 138°52'4 7.6
2018-Feb-20 20:03N 34°32' E 138°57'1 6.7
2018-Feb-20 19:56N 34°32' E 138°58'5 9.3
2018-Feb-20 19:27N 34°36' E 139°01'510.5
2018-Feb-20 19:00N 34°40' E 139°03'910.6
2018-Feb-20 18:09N 34°49' E 139°06'21 3.1
2018-Feb-20 11:18N 35°01' E 139°27'411.2
2018-Feb-20 10:55N 35°04' E 139°32'1 2.8
2018-Feb-20 10:28N 35°05' E 139°33'0 0.4
2018-Feb-20 09:59N 35°05' E 139°32'0 0.2
2018-Feb-20 09:29N 35°05' E 139°32'0 0.3
2018-Feb-20 08:58N 35°05' E 139°32'0 0.4
2018-Feb-20 08:23N 35°05' E 139°33'0 0.4
2018-Feb-20 07:50N 35°05' E 139°33'0 0.5
2018-Feb-20 07:30N 35°05' E 139°32'5 9.8
2018-Feb-20 06:59N 35°06' E 139°38'612.0
2018-Feb-20 06:30N 35°09' E 139°44'612.2
2018-Feb-20 06:00N 35°15' E 139°46'611.9
2018-Feb-20 05:30N 35°20' E 139°42'4 7.4
2018-Feb-20 05:00N 35°23' E 139°39'0 0.2
2018-Feb-20 04:29N 35°23' E 139°39'0 0.0
2018-Feb-20 03:59N 35°23' E 139°39'0 0.0
2018-Feb-20 03:29N 35°23' E 139°39'0 0.0
2018-Feb-20 02:59N 35°23' E 139°39'0 0.0
2018-Feb-20 02:29N 35°23' E 139°39'0 0.0
2018-Feb-20 01:59N 35°23' E 139°39'0 0.0
2018-Feb-20 01:29N 35°23' E 139°39'0 0.0
2018-Feb-20 00:59N 35°23' E 139°39'0 0.0
2018-Feb-20 00:29N 35°23' E 139°39'0 0.0
2018-Feb-19 23:59N 35°23' E 139°39'0 0.0
2018-Feb-19 23:29N 35°23' E 139°39'0 0.0
2018-Feb-19 22:59N 35°23' E 139°39'0 0.0
2018-Feb-19 22:26N 35°23' E 139°39'0 0.0
2018-Feb-19 21:59N 35°23' E 139°39'0 0.0
2018-Feb-19 21:29N 35°23' E 139°39'0 0.0
2018-Feb-19 20:59N 35°23' E 139°39'0 0.0
2018-Feb-19 20:29N 35°23' E 139°39'0 0.0
2018-Feb-19 19:59N 35°23' E 139°39'0 0.0
2018-Feb-19 19:29N 35°23' E 139°39'0 0.0
2018-Feb-19 18:59N 35°23' E 139°39'0 0.0
2018-Feb-19 18:29N 35°23' E 139°39'0 0.0
2018-Feb-19 17:59N 35°23' E 139°39'0 0.0
2018-Feb-19 17:29N 35°23' E 139°39'0 0.0
2018-Feb-19 16:59N 35°23' E 139°39'0 0.0
2018-Feb-19 16:29N 35°23' E 139°39'0 0.0
2018-Feb-19 15:59N 35°23' E 139°39'0 0.0
2018-Feb-19 15:29N 35°23' E 139°39'0 0.0
2018-Feb-19 14:59N 35°23' E 139°39'0 0.0
2018-Feb-19 14:29N 35°23' E 139°39'0 0.0
2018-Feb-19 13:59N 35°23' E 139°39'0 0.0
2018-Feb-19 13:29N 35°23' E 139°39'0 0.0
2018-Feb-19 12:59N 35°23' E 139°39'0 0.0
2018-Feb-19 12:29N 35°23' E 139°39'0 0.0
2018-Feb-19 11:59N 35°23' E 139°39'0 0.0
2018-Feb-19 11:29N 35°23' E 139°39'0 0.0
2018-Feb-19 10:59N 35°23' E 139°39'0 0.0
2018-Feb-19 10:29N 35°23' E 139°39'0 0.0
2018-Feb-19 09:59N 35°23' E 139°39'0 0.0
2018-Feb-19 09:29N 35°23' E 139°39'0 0.0
2018-Feb-19 08:59N 35°23' E 139°39'0 0.0
2018-Feb-19 08:23N 35°23' E 139°39'0 0.0
2018-Feb-19 07:59N 35°23' E 139°39'0 0.0
2018-Feb-19 07:29N 35°23' E 139°39'0 0.0
2018-Feb-19 06:59N 35°23' E 139°39'0 0.0
2018-Feb-19 06:29N 35°23' E 139°39'0 0.0
2018-Feb-19 05:59N 35°23' E 139°39'0 0.0
2018-Feb-19 05:29N 35°23' E 139°39'0 0.0
2018-Feb-19 04:59N 35°23' E 139°39'0 0.0
2018-Feb-19 04:29N 35°23' E 139°39'0 0.0
2018-Feb-19 03:59N 35°23' E 139°39'0 0.0
2018-Feb-19 03:29N 35°23' E 139°39'0 0.0
2018-Feb-19 02:58N 35°23' E 139°39'0 0.0
2018-Feb-19 02:28N 35°23' E 139°39'0 0.0
2018-Feb-19 01:58N 35°23' E 139°39'0 0.0
2018-Feb-19 01:28N 35°23' E 139°39'0 0.0
2018-Feb-19 00:58N 35°23' E 139°39'0 0.0
2018-Feb-19 00:28N 35°23' E 139°39'0 0.0
2018-Feb-18 23:58N 35°23' E 139°39'0 0.0
2018-Feb-18 23:28N 35°23' E 139°39'0 0.0
2018-Feb-18 22:58N 35°23' E 139°39'0 0.0
2018-Feb-18 22:28N 35°23' E 139°39'0 0.0
2018-Feb-18 21:58N 35°23' E 139°39'0 0.0
2018-Feb-18 21:28N 35°23' E 139°39'0 0.0
2018-Feb-18 20:58N 35°23' E 139°39'0 0.0
2018-Feb-18 20:28N 35°23' E 139°39'0 0.0
2018-Feb-18 19:58N 35°23' E 139°39'0 0.0
2018-Feb-18 19:28N 35°23' E 139°39'0 0.0
2018-Feb-18 18:58N 35°23' E 139°39'0 0.0
2018-Feb-18 18:28N 35°23' E 139°39'0 0.0
2018-Feb-18 17:58N 35°23' E 139°39'0 0.0
2018-Feb-18 17:28N 35°23' E 139°39'0 0.0
2018-Feb-18 16:58N 35°23' E 139°39'0 0.0
2018-Feb-18 16:28N 35°23' E 139°39'0 0.0
2018-Feb-18 15:58N 35°23' E 139°39'0 0.0
2018-Feb-18 15:28N 35°23' E 139°39'0 0.0
2018-Feb-18 14:55N 35°23' E 139°39'0 0.0
2018-Feb-18 14:28N 35°23' E 139°39'0 0.0
2018-Feb-18 13:58N 35°23' E 139°39'0 0.0
2018-Feb-18 13:28N 35°23' E 139°39'0 0.0
2018-Feb-18 12:58N 35°23' E 139°39'0 0.0
2018-Feb-18 12:28N 35°23' E 139°39'0 0.0
2018-Feb-18 11:58N 35°23' E 139°39'0 0.0
2018-Feb-18 11:28N 35°23' E 139°39'0 0.0
2018-Feb-18 10:58N 35°23' E 139°39'0 0.0
2018-Feb-18 10:28N 35°23' E 139°39'0 0.0
2018-Feb-18 09:58N 35°23' E 139°39'0 0.0
2018-Feb-18 09:28N 35°23' E 139°39'0 0.0
2018-Feb-18 08:58N 35°23' E 139°39'0 0.0
2018-Feb-18 08:28N 35°23' E 139°39'0 0.0
2018-Feb-18 07:58N 35°23' E 139°39'0 0.0
2018-Feb-18 07:28N 35°23' E 139°39'0 0.0
2018-Feb-18 06:58N 35°23' E 139°39'0 0.0
2018-Feb-18 06:28N 35°23' E 139°39'0 0.0
2018-Feb-18 05:58N 35°23' E 139°39'0 0.0
2018-Feb-18 05:28N 35°23' E 139°39'0 0.0
2018-Feb-18 04:58N 35°23' E 139°39'0 0.0
2018-Feb-18 04:28N 35°23' E 139°39'0 0.0
2018-Feb-18 03:58N 35°23' E 139°39'0 0.0
2018-Feb-18 03:28N 35°23' E 139°39'0 0.0
2018-Feb-18 02:58N 35°23' E 139°39'0 0.0
2018-Feb-18 02:25N 35°23' E 139°39'0 0.0
2018-Feb-18 01:58N 35°23' E 139°39'0 0.0
2018-Feb-18 01:28N 35°23' E 139°39'0 0.0
2018-Feb-18 00:58N 35°23' E 139°39'0 0.0
2018-Feb-18 00:28N 35°23' E 139°39'0 0.0
2018-Feb-17 23:58N 35°23' E 139°39'0 0.0
2018-Feb-17 23:28N 35°23' E 139°39'0 0.0
2018-Feb-17 22:58N 35°23' E 139°39'0 0.0
2018-Feb-17 22:28N 35°23' E 139°39'0 0.0
2018-Feb-17 21:58N 35°23' E 139°39'0 0.0
2018-Feb-17 21:28N 35°23' E 139°39'0 0.0
2018-Feb-17 20:58N 35°23' E 139°39'0 0.0
2018-Feb-17 20:28N 35°23' E 139°39'0 0.0
2018-Feb-17 19:58N 35°23' E 139°39'0 0.0
2018-Feb-17 19:28N 35°23' E 139°39'0 0.0
2018-Feb-17 18:58N 35°23' E 139°39'0 0.0
2018-Feb-17 18:28N 35°23' E 139°39'0 0.0
2018-Feb-17 17:58N 35°23' E 139°39'0 0.0
2018-Feb-17 17:31N 35°23' E 139°39'0 0.0
2018-Feb-17 17:01N 35°23' E 139°39'0 0.0
2018-Feb-17 16:30N 35°23' E 139°39'0 0.0
2018-Feb-17 16:00N 35°23' E 139°39'0 0.0
2018-Feb-17 15:31N 35°23' E 139°39'0 0.0
2018-Feb-17 15:01N 35°23' E 139°39'0 0.0
2018-Feb-17 14:30N 35°23' E 139°39'0 0.0
2018-Feb-17 14:00N 35°23' E 139°39'0 0.0
2018-Feb-17 13:30N 35°23' E 139°39'0 0.0
2018-Feb-17 13:00N 35°23' E 139°39'0 0.0
2018-Feb-17 12:30N 35°23' E 139°39'0 0.0
2018-Feb-17 12:00N 35°23' E 139°39'0 0.0
2018-Feb-17 11:30N 35°23' E 139°39'0 0.0
2018-Feb-17 11:00N 35°23' E 139°39'0 0.0
2018-Feb-17 10:30N 35°23' E 139°39'0 0.0
2018-Feb-17 10:00N 35°23' E 139°39'0 0.0
2018-Feb-17 09:30N 35°23' E 139°39'0 0.0
2018-Feb-17 09:00N 35°23' E 139°39'0 0.0
2018-Feb-17 08:30N 35°23' E 139°39'0 0.0
2018-Feb-17 07:57N 35°23' E 139°39'0 0.0
2018-Feb-17 07:30N 35°23' E 139°39'0 0.0
2018-Feb-17 07:00N 35°23' E 139°39'0 0.0
2018-Feb-17 06:30N 35°23' E 139°39'0 0.0
2018-Feb-17 06:00N 35°23' E 139°39'0 0.0
2018-Feb-17 05:30N 35°23' E 139°39'0 0.0
2018-Feb-17 05:00N 35°23' E 139°39'0 0.0
2018-Feb-17 04:27N 35°23' E 139°39'0 0.0
2018-Feb-17 04:00N 35°23' E 139°39'0 0.0
2018-Feb-17 03:30N 35°23' E 139°39'0 0.0
2018-Feb-17 03:00N 35°23' E 139°39'0 0.0
2018-Feb-17 02:30N 35°23' E 139°39'0 0.0
2018-Feb-17 02:00N 35°23' E 139°39'0 0.0
2018-Feb-17 01:30N 35°23' E 139°39'0 0.0
2018-Feb-17 01:00N 35°23' E 139°39'0 0.0
2018-Feb-17 00:30N 35°23' E 139°39'0 0.0
2018-Feb-17 00:00N 35°23' E 139°39'0 0.0
2018-Feb-16 23:30N 35°23' E 139°39'0 0.0
2018-Feb-16 23:00N 35°23' E 139°39'0 0.0
2018-Feb-16 22:30N 35°23' E 139°39'0 0.0
2018-Feb-16 22:00N 35°23' E 139°39'0 0.0
2018-Feb-16 21:30N 35°23' E 139°39'0 0.0
2018-Feb-16 21:00N 35°23' E 139°39'0 0.0
2018-Feb-16 20:30N 35°23' E 139°39'0 0.0
2018-Feb-16 20:00N 35°23' E 139°39'0 0.0
2018-Feb-16 19:30N 35°23' E 139°39'0 0.0
2018-Feb-16 19:00N 35°23' E 139°39'0 0.0
2018-Feb-16 18:30N 35°23' E 139°39'0 0.0
2018-Feb-16 18:00N 35°23' E 139°39'0 0.0
2018-Feb-16 17:30N 35°23' E 139°39'0 0.0
2018-Feb-16 17:00N 35°23' E 139°39'0 0.0
2018-Feb-16 16:30N 35°23' E 139°39'0 0.0
2018-Feb-16 16:00N 35°23' E 139°39'0 0.0
2018-Feb-16 15:30N 35°23' E 139°39'0 0.0
2018-Feb-16 15:00N 35°23' E 139°39'0 0.0
2018-Feb-16 14:30N 35°23' E 139°39'0 0.0
2018-Feb-16 14:00N 35°23' E 139°39'0 0.0
2018-Feb-16 13:30N 35°23' E 139°39'0 0.0
2018-Feb-16 13:00N 35°23' E 139°39'0 0.0
2018-Feb-16 12:30N 35°23' E 139°39'0 0.0
2018-Feb-16 12:00N 35°23' E 139°39'0 0.0
2018-Feb-16 11:30N 35°23' E 139°39'0 0.0
2018-Feb-16 11:00N 35°23' E 139°39'0 0.0
2018-Feb-16 10:30N 35°23' E 139°39'0 0.0
2018-Feb-16 10:00N 35°23' E 139°39'0 0.0
2018-Feb-16 09:30N 35°23' E 139°39'0 0.0
2018-Feb-16 09:00N 35°23' E 139°39'0 0.0
2018-Feb-16 08:30N 35°23' E 139°39'0 0.0
2018-Feb-16 08:00N 35°23' E 139°39'0 0.0
2018-Feb-16 07:30N 35°23' E 139°39'0 0.0
2018-Feb-16 07:00N 35°23' E 139°39'0 0.0
2018-Feb-16 06:30N 35°23' E 139°39'0 0.0
2018-Feb-16 05:59N 35°23' E 139°39'0 0.0
2018-Feb-16 05:29N 35°23' E 139°39'0 0.0
2018-Feb-16 04:59N 35°23' E 139°39'0 0.0
2018-Feb-16 04:30N 35°23' E 139°39'0 0.0
2018-Feb-16 03:59N 35°23' E 139°39'0 0.0
2018-Feb-16 03:29N 35°23' E 139°39'0 0.0
2018-Feb-16 02:59N 35°23' E 139°39'0 0.0
2018-Feb-16 02:29N 35°23' E 139°39'0 0.0
2018-Feb-16 01:59N 35°23' E 139°39'0 0.0
2018-Feb-16 01:29N 35°23' E 139°39'0 0.0
2018-Feb-16 00:59N 35°23' E 139°39'0 0.0
2018-Feb-16 00:29N 35°23' E 139°39'0 0.0
2018-Feb-15 23:59N 35°23' E 139°39'0 0.0
2018-Feb-15 23:29N 35°23' E 139°39'0 0.0
2018-Feb-15 22:59N 35°23' E 139°39'0 0.0
2018-Feb-15 22:29N 35°23' E 139°39'0 0.0
2018-Feb-15 21:59N 35°23' E 139°39'0 0.0
2018-Feb-15 21:29N 35°23' E 139°39'0 0.0
2018-Feb-15 20:59N 35°23' E 139°39'0 0.0
2018-Feb-15 20:29N 35°23' E 139°39'0 0.0
2018-Feb-15 19:59N 35°23' E 139°39'0 0.0
2018-Feb-15 19:29N 35°23' E 139°39'0 0.0
2018-Feb-15 18:59N 35°23' E 139°39'0 0.0
2018-Feb-15 18:29N 35°23' E 139°39'0 0.0
2018-Feb-15 17:59N 35°23' E 139°39'0 0.0
2018-Feb-15 17:29N 35°23' E 139°39'0 0.0
2018-Feb-15 16:59N 35°23' E 139°39'0 0.0
2018-Feb-15 16:29N 35°23' E 139°39'0 0.0
2018-Feb-15 15:59N 35°23' E 139°39'0 0.0
2018-Feb-15 15:29N 35°23' E 139°39'0 0.0
2018-Feb-15 14:56N 35°23' E 139°39'0 0.0
2018-Feb-15 14:29N 35°23' E 139°39'0 0.0
2018-Feb-15 13:59N 35°23' E 139°39'0 0.0
2018-Feb-15 13:29N 35°23' E 139°39'0 0.0
2018-Feb-15 12:59N 35°23' E 139°39'0 0.0
2018-Feb-15 12:29N 35°23' E 139°39'0 0.0
2018-Feb-15 11:59N 35°23' E 139°39'0 0.0
2018-Feb-15 11:29N 35°23' E 139°39'0 0.0
2018-Feb-15 10:59N 35°23' E 139°39'0 0.0
2018-Feb-15 10:29N 35°23' E 139°39'0 0.0
2018-Feb-15 09:59N 35°23' E 139°39'0 0.0
2018-Feb-15 09:29N 35°23' E 139°39'0 0.0
2018-Feb-15 08:59N 35°23' E 139°39'0 0.0
2018-Feb-15 08:29N 35°23' E 139°39'0 0.0
2018-Feb-15 07:59N 35°23' E 139°39'0 0.0
2018-Feb-15 07:29N 35°23' E 139°39'0 0.0
2018-Feb-15 06:59N 35°23' E 139°39'0 0.0
2018-Feb-15 06:23N 35°23' E 139°39'0 0.0
2018-Feb-15 05:59N 35°23' E 139°39'0 0.0
2018-Feb-15 05:29N 35°23' E 139°39'0 0.0
2018-Feb-15 04:59N 35°23' E 139°39'0 0.0
2018-Feb-15 04:29N 35°23' E 139°39'0 0.0
2018-Feb-15 03:59N 35°23' E 139°39'0 0.0
2018-Feb-15 03:29N 35°23' E 139°39'0 0.0
2018-Feb-15 02:59N 35°23' E 139°39'0 0.0
2018-Feb-15 02:29N 35°23' E 139°39'0 0.0
2018-Feb-15 01:59N 35°23' E 139°39'0 0.0
2018-Feb-15 01:29N 35°23' E 139°39'0 0.0
2018-Feb-15 00:59N 35°23' E 139°39'0 0.0
2018-Feb-15 00:29N 35°23' E 139°39'0 0.0
2018-Feb-14 23:56N 35°23' E 139°39'0 0.0
2018-Feb-14 23:29N 35°23' E 139°39'0 0.0
2018-Feb-14 22:59N 35°23' E 139°39'0 0.0
2018-Feb-14 22:29N 35°23' E 139°39'0 0.0
2018-Feb-14 21:59N 35°23' E 139°39'0 0.0
2018-Feb-14 21:29N 35°23' E 139°39'0 0.0
2018-Feb-14 20:59N 35°23' E 139°39'0 0.0
2018-Feb-14 20:29N 35°23' E 139°39'0 0.0
2018-Feb-14 19:59N 35°23' E 139°39'0 0.0
2018-Feb-14 19:29N 35°23' E 139°39'0 0.0
2018-Feb-14 18:58N 35°23' E 139°39'0 0.0
2018-Feb-14 18:29N 35°23' E 139°39'0 0.0
2018-Feb-14 17:59N 35°23' E 139°39'0 0.0
2018-Feb-14 17:29N 35°23' E 139°39'0 0.0
2018-Feb-14 16:58N 35°23' E 139°39'0 0.0
2018-Feb-14 16:28N 35°23' E 139°39'0 0.0
2018-Feb-14 15:58N 35°23' E 139°39'0 0.0
2018-Feb-14 15:28N 35°23' E 139°39'0 0.0
2018-Feb-14 14:58N 35°23' E 139°39'0 0.0
2018-Feb-14 14:28N 35°23' E 139°39'0 0.0
2018-Feb-14 13:58N 35°23' E 139°39'0 0.0
2018-Feb-14 13:28N 35°23' E 139°39'0 0.0
2018-Feb-14 12:58N 35°23' E 139°39'0 0.0
2018-Feb-14 12:28N 35°23' E 139°39'0 0.0
2018-Feb-14 11:55N 35°23' E 139°39'0 0.0
2018-Feb-14 11:28N 35°23' E 139°39'0 0.0
2018-Feb-14 10:55N 35°23' E 139°39'0 0.0
2018-Feb-14 10:28N 35°23' E 139°39'0 0.0
2018-Feb-14 09:58N 35°23' E 139°39'0 0.0
2018-Feb-14 09:28N 35°23' E 139°39'0 0.0
2018-Feb-14 08:58N 35°23' E 139°39'0 0.0
2018-Feb-14 08:28N 35°23' E 139°39'0 0.0
2018-Feb-14 07:58N 35°23' E 139°39'0 0.0
2018-Feb-14 07:25N 35°23' E 139°39'0 0.0
2018-Feb-14 06:58N 35°23' E 139°39'0 0.0
2018-Feb-14 06:28N 35°23' E 139°39'0 0.0
2018-Feb-14 05:58N 35°23' E 139°39'0 0.0
2018-Feb-14 05:28N 35°23' E 139°39'0 0.0
2018-Feb-14 04:58N 35°23' E 139°39'0 0.0
2018-Feb-14 04:28N 35°23' E 139°39'0 0.0
2018-Feb-14 03:58N 35°23' E 139°39'0 0.0
2018-Feb-14 03:28N 35°23' E 139°39'0 0.0
2018-Feb-14 02:58N 35°23' E 139°39'0 0.0
2018-Feb-14 02:28N 35°23' E 139°39'0 0.0
2018-Feb-14 01:58N 35°23' E 139°39'0 0.0
2018-Feb-14 01:28N 35°23' E 139°39'0 0.0
2018-Feb-14 00:58N 35°23' E 139°39'0 0.0
2018-Feb-14 00:28N 35°23' E 139°39'0 0.0
2018-Feb-13 23:58N 35°23' E 139°39'0 0.0
2018-Feb-13 23:28N 35°23' E 139°39'0 0.0
2018-Feb-13 22:58N 35°23' E 139°39'0 0.0
2018-Feb-13 22:28N 35°23' E 139°39'0 0.0
2018-Feb-13 21:58N 35°23' E 139°39'0 0.0
2018-Feb-13 21:28N 35°23' E 139°39'0 0.0
2018-Feb-13 20:58N 35°23' E 139°39'0 0.0
2018-Feb-13 20:28N 35°23' E 139°39'0 0.0
2018-Feb-13 19:58N 35°23' E 139°39'0 0.0
2018-Feb-13 19:28N 35°23' E 139°39'0 0.0
2018-Feb-13 18:58N 35°23' E 139°39'0 0.0
2018-Feb-13 18:28N 35°23' E 139°39'0 0.0
2018-Feb-13 17:58N 35°23' E 139°39'0 0.0
2018-Feb-13 17:28N 35°23' E 139°39'0 0.0
2018-Feb-13 16:58N 35°23' E 139°39'0 0.0
2018-Feb-13 16:28N 35°23' E 139°39'0 0.0
2018-Feb-13 15:58N 35°23' E 139°39'0 0.0
2018-Feb-13 15:28N 35°23' E 139°39'0 0.0
2018-Feb-13 14:58N 35°23' E 139°39'0 0.0
2018-Feb-13 14:28N 35°23' E 139°39'0 0.0
2018-Feb-13 13:58N 35°23' E 139°39'0 0.0
2018-Feb-13 13:28N 35°23' E 139°39'0 0.0
2018-Feb-13 12:58N 35°23' E 139°39'0 0.0
2018-Feb-13 12:28N 35°23' E 139°39'0 0.0
2018-Feb-13 11:58N 35°23' E 139°39'0 0.0
2018-Feb-13 11:28N 35°23' E 139°39'0 0.0
2018-Feb-13 10:58N 35°23' E 139°39'0 0.0
2018-Feb-13 10:28N 35°23' E 139°39'0 0.0
2018-Feb-13 09:58N 35°23' E 139°39'0 0.0
2018-Feb-13 09:28N 35°23' E 139°39'0 0.0
2018-Feb-13 09:01N 35°23' E 139°39'0 0.0
2018-Feb-13 08:30N 35°23' E 139°39'0 0.0
2018-Feb-13 08:00N 35°23' E 139°39'0 0.0
2018-Feb-13 07:30N 35°23' E 139°39'0 0.0
2018-Feb-13 07:00N 35°23' E 139°39'0 0.0
2018-Feb-13 06:30N 35°23' E 139°39'0 0.0
2018-Feb-13 06:00N 35°23' E 139°39'0 0.0
2018-Feb-13 05:30N 35°23' E 139°39'0 0.0
2018-Feb-13 05:00N 35°23' E 139°39'0 0.0
2018-Feb-13 04:30N 35°23' E 139°39'0 0.0
2018-Feb-13 04:00N 35°23' E 139°39'0 0.0
2018-Feb-13 03:30N 35°23' E 139°39'0 0.0
2018-Feb-13 03:00N 35°23' E 139°39'0 0.0
2018-Feb-13 02:30N 35°23' E 139°39'0 0.0
2018-Feb-13 02:00N 35°23' E 139°39'0 0.0
2018-Feb-13 01:30N 35°23' E 139°39'0 0.0
2018-Feb-13 01:00N 35°23' E 139°39'0 0.0
2018-Feb-13 00:30N 35°23' E 139°39'0 0.0
2018-Feb-13 00:00N 35°23' E 139°39'0 0.0
2018-Feb-12 23:30N 35°23' E 139°39'0 0.0
2018-Feb-12 23:00N 35°23' E 139°39'0 0.0
2018-Feb-12 22:30N 35°23' E 139°39'0 0.0
2018-Feb-12 22:00N 35°23' E 139°39'0 0.0
2018-Feb-12 21:30N 35°23' E 139°39'0 0.0
2018-Feb-12 21:00N 35°23' E 139°39'0 0.0
2018-Feb-12 20:30N 35°23' E 139°39'0 0.0
2018-Feb-12 20:00N 35°23' E 139°39'0 0.0
2018-Feb-12 19:30N 35°23' E 139°39'0 0.0
2018-Feb-12 19:00N 35°23' E 139°39'0 0.0
2018-Feb-12 18:30N 35°23' E 139°39'0 0.0
2018-Feb-12 18:00N 35°23' E 139°39'0 0.0
2018-Feb-12 17:30N 35°23' E 139°39'0 0.0
2018-Feb-12 17:00N 35°23' E 139°39'0 0.0
2018-Feb-12 16:30N 35°23' E 139°39'0 0.0
2018-Feb-12 16:00N 35°23' E 139°39'0 0.0
2018-Feb-12 15:30N 35°23' E 139°39'0 0.0
2018-Feb-12 15:00N 35°23' E 139°39'0 0.0
2018-Feb-12 14:30N 35°23' E 139°39'0 0.0
2018-Feb-12 14:00N 35°23' E 139°39'0 0.0
2018-Feb-12 13:30N 35°23' E 139°39'0 0.0
2018-Feb-12 13:00N 35°23' E 139°39'0 0.0
2018-Feb-12 12:30N 35°23' E 139°39'0 0.0
2018-Feb-12 12:00N 35°23' E 139°39'0 0.0
2018-Feb-12 11:30N 35°23' E 139°39'0 0.0
2018-Feb-12 11:00N 35°23' E 139°39'0 0.0
2018-Feb-12 10:30N 35°23' E 139°39'0 0.0
2018-Feb-12 10:00N 35°23' E 139°39'0 0.0
2018-Feb-12 09:30N 35°23' E 139°39'0 0.0
2018-Feb-12 09:00N 35°23' E 139°39'0 0.0
2018-Feb-12 08:30N 35°23' E 139°39'0 0.0
2018-Feb-12 08:00N 35°23' E 139°39'0 0.0
2018-Feb-12 07:30N 35°23' E 139°39'0 0.0
2018-Feb-12 07:00N 35°23' E 139°39'0 0.0
2018-Feb-12 06:30N 35°23' E 139°39'0 0.0
2018-Feb-12 06:00N 35°23' E 139°39'0 0.0
2018-Feb-12 05:30N 35°23' E 139°39'0 0.0
2018-Feb-12 05:00N 35°23' E 139°39'0 0.0
2018-Feb-12 04:30N 35°23' E 139°39'0 0.0
2018-Feb-12 04:00N 35°23' E 139°39'0 0.0
2018-Feb-12 03:30N 35°23' E 139°39'0 0.0
2018-Feb-12 03:00N 35°23' E 139°39'0 0.0
2018-Feb-12 02:27N 35°23' E 139°39'0 0.0
2018-Feb-12 02:00N 35°23' E 139°39'0 0.0
2018-Feb-12 01:30N 35°23' E 139°39'0 0.0
2018-Feb-12 01:00N 35°23' E 139°39'0 0.0
2018-Feb-12 00:30N 35°23' E 139°39'0 0.0
2018-Feb-12 00:00N 35°23' E 139°39'0 0.0
2018-Feb-11 23:30N 35°23' E 139°39'0 0.0
2018-Feb-11 23:00N 35°23' E 139°39'0 0.0
2018-Feb-11 22:30N 35°23' E 139°39'0 0.0
2018-Feb-11 22:00N 35°23' E 139°39'0 0.0
2018-Feb-11 21:29N 35°23' E 139°39'0 0.0
2018-Feb-11 20:59N 35°23' E 139°39'0 0.0
2018-Feb-11 20:30N 35°23' E 139°39'0 0.0
2018-Feb-11 19:59N 35°23' E 139°39'0 0.0
2018-Feb-11 19:29N 35°23' E 139°39'0 0.0
2018-Feb-11 18:59N 35°23' E 139°39'0 0.0
2018-Feb-11 18:29N 35°23' E 139°39'0 0.0
2018-Feb-11 17:59N 35°23' E 139°39'0 0.0
2018-Feb-11 17:29N 35°23' E 139°39'0 0.0
2018-Feb-11 16:59N 35°23' E 139°39'0 0.0
2018-Feb-11 16:29N 35°23' E 139°39'0 0.0
2018-Feb-11 15:59N 35°23' E 139°39'0 0.0
2018-Feb-11 15:29N 35°23' E 139°39'0 0.0
2018-Feb-11 14:59N 35°23' E 139°39'0 0.0
2018-Feb-11 14:29N 35°23' E 139°39'0 0.0
2018-Feb-11 13:59N 35°23' E 139°39'0 0.0
2018-Feb-11 13:29N 35°23' E 139°39'0 0.0
2018-Feb-11 12:59N 35°23' E 139°39'0 0.0
2018-Feb-11 12:29N 35°23' E 139°39'0 0.0
2018-Feb-11 11:59N 35°23' E 139°39'0 0.0
2018-Feb-11 11:29N 35°23' E 139°39'0 0.0
2018-Feb-11 10:59N 35°23' E 139°39'0 0.0
2018-Feb-11 10:29N 35°23' E 139°39'0 0.0
2018-Feb-11 09:59N 35°23' E 139°39'0 0.0
2018-Feb-11 09:29N 35°23' E 139°39'0 0.0
2018-Feb-11 08:59N 35°23' E 139°39'0 0.0
2018-Feb-11 08:29N 35°23' E 139°39'0 0.0
2018-Feb-11 07:59N 35°23' E 139°39'0 0.0
2018-Feb-11 07:29N 35°23' E 139°39'0 0.0
2018-Feb-11 06:59N 35°23' E 139°39'0 0.0
2018-Feb-11 06:29N 35°23' E 139°39'0 0.0
2018-Feb-11 05:59N 35°23' E 139°39'0 0.0
2018-Feb-11 05:29N 35°23' E 139°39'0 0.0
2018-Feb-11 04:59N 35°23' E 139°39'0 0.0
2018-Feb-11 04:29N 35°23' E 139°39'0 0.0
2018-Feb-11 03:59N 35°23' E 139°39'0 0.0
2018-Feb-11 03:29N 35°23' E 139°39'0 0.0
2018-Feb-11 02:59N 35°23' E 139°39'0 0.0
2018-Feb-11 02:29N 35°23' E 139°39'  

Dump ship's entire track history